Terminal Aerodrome Forecast
Issued by NWS Wilmington, OH

Home | Current Version | Previous Version | Text Only | Print | Product List | Glossary On
Versions: 1 2 3 4 5 6 7 8 9 10 11 12 13 14
177
FTUS41 KILN 080737 AAA
TAFCMH
TAF AMD
KCMH 080737Z 0808/0906 22007KT P6SM -RA BKN035 OVC120
     FM081400 26006KT P6SM BKN035 OVC100
     FM081900 27008KT P6SM -SHRA BKN025 OVC040
     FM090200 27010KT 5SM -SHSN BR SCT007 OVC012=

USA.gov is the U.S. government's official web portal to all federal, state and local government web resources and services.